Terminal Aerodrome Forecast
Issued by NWS

Home | Current Version | Previous Version | Text Only | Print | Product List | Glossary On
Versions: 1 2 3 4 5 6 7 8 9 10 11 12 13 14 15 16 17 18 19 20 21 22 23 24 25
000
FTUS44 KFWD 070918 AAA
TAFFTW
TAF AMD
KFTW 070918Z 0709/0806 18015KT P6SM VCSH BKN020
      TEMPO 0709/0712 P6SM NSW SCT020 BKN090
     FM071600 18017KT P6SM SCT025 BKN250
     FM072100 19016KT P6SM VCTS SCT040CB BKN250
     FM080200 18014KT P6SM -SHRA BKN050=

USA.gov is the U.S. government's official web portal to all federal, state and local government web resources and services.